Exu, Brazil
Current Conditions -  °F | °C
As of 11:00 AM on Saturday 25 Oct 2014 (Local Time) from SBJU Reporting Station
Broken Clouds Broken Clouds  
Wind Chill: 90°   Ceiling: 2000
Heat Index: 93°   Visibility: 6mi
Dew Point: 68°   Wind: 5mph
Humidity: 49%   Direction: 100°E
Pressure: 30"   Gusts: NA
Location:  7.51°S, 39.71°W
Report Text: SBJU 251400Z 10004KT 9999 BKN020 32/20 Q1016
Loading
Personal Weather Stations






























Interactive Weather Map
Tropical Storm Tracking
New forecast layout! Learn more

10-Day Weather Forecast

Advertisements
Track Severe Weather on mobile